Main page
METAR-TAF:

METAR-TAF

Airports :

Kimble County Airport

Junction, Texas, United States

latitude: 30-30-39N, longitude: 099-45-59W, elevation: 1729 ft

Current weather observation

The report was made 1 hour and 7 minutes ago, at 01:51 UTC
Calm wind
Temperature 43°F
Humidity 56%
Pressure 30.34 in. Hg
Visibility: 10 miles
Clear sky

METAR: KJCT 150151Z AUTO 00000KT 10SM CLR 06/M02 A3034 RMK AO2 SLP271 T00611017 $

Time: 20:58 (02:58 UTC)

Forecast

The report was made 3 hours and 5 minutes ago, at 23:53 UTC
Forecast valid from 15 at 00 UTC to 15 at 24 UTC
Wind 7 mph from the Northwest
Visibility: 6 miles
Clear sky

TAF: KJCT 142353Z 1500/1524 31006KT P6SM SKC

Weather observations and forecasts of more than 4000 airports (METAR and TAF reports).

The available stations are represented by yellow and red dots on the map.

Hover mouse over dot to see the name of the station.

Then click to see weather observations and forecasts.

To change the map : click on the green buttons with a black cross to zoom in, on the green button with a dash to zoom out, or on the green arrows for adjacent maps.


METAR-TAF: